sensor_id;sensor_type;location;lat;lon;timestamp;P1;durP1;ratioP1;P2;durP2;ratioP2
57375;SDS011;44805;45.048;5.062;2023-05-07T00:01:22;3.58;;;1.10;;
57375;SDS011;44805;45.048;5.062;2023-05-07T00:03:48;1.67;;;0.90;;
57375;SDS011;44805;45.048;5.062;2023-05-07T00:06:14;4.45;;;1.38;;
57375;SDS011;44805;45.048;5.062;2023-05-07T00:08:39;1.85;;;1.20;;
57375;SDS011;44805;45.048;5.062;2023-05-07T00:11:05;3.50;;;1.40;;
57375;SDS011;44805;45.048;5.062;2023-05-07T00:13:30;4.20;;;1.40;;
57375;SDS011;44805;45.048;5.062;2023-05-07T00:18:25;4.38;;;1.33;;
57375;SDS011;44805;45.048;5.062;2023-05-07T00:20:51;2.58;;;1.23;;
57375;SDS011;44805;45.048;5.062;2023-05-07T00:23:16;2.85;;;1.55;;
57375;SDS011;44805;45.048;5.062;2023-05-07T00:25:42;3.33;;;1.45;;
57375;SDS011;44805;45.048;5.062;2023-05-07T00:28:07;3.75;;;1.30;;
57375;SDS011;44805;45.048;5.062;2023-05-07T00:30:33;2.80;;;1.38;;
57375;SDS011;44805;45.048;5.062;2023-05-07T00:32:58;3.58;;;1.30;;
57375;SDS011;44805;45.048;5.062;2023-05-07T00:35:24;4.00;;;1.58;;
57375;SDS011;44805;45.048;5.062;2023-05-07T00:37:49;3.35;;;1.30;;
57375;SDS011;44805;45.048;5.062;2023-05-07T00:40:14;2.92;;;1.30;;
57375;SDS011;44805;45.048;5.062;2023-05-07T00:42:40;3.55;;;1.30;;
57375;SDS011;44805;45.048;5.062;2023-05-07T00:45:05;2.97;;;1.40;;
57375;SDS011;44805;45.048;5.062;2023-05-07T00:47:32;5.03;;;1.70;;
57375;SDS011;44805;45.048;5.062;2023-05-07T00:49:58;3.53;;;1.20;;
57375;SDS011;44805;45.048;5.062;2023-05-07T00:52:24;3.30;;;1.40;;
57375;SDS011;44805;45.048;5.062;2023-05-07T00:54:51;2.47;;;1.27;;
57375;SDS011;44805;45.048;5.062;2023-05-07T00:57:17;3.65;;;1.63;;
57375;SDS011;44805;45.048;5.062;2023-05-07T00:59:43;2.15;;;1.27;;
57375;SDS011;44805;45.048;5.062;2023-05-07T01:02:08;2.63;;;1.40;;
57375;SDS011;44805;45.048;5.062;2023-05-07T01:04:37;3.92;;;1.40;;
57375;SDS011;44805;45.048;5.062;2023-05-07T01:07:02;3.88;;;1.40;;
57375;SDS011;44805;45.048;5.062;2023-05-07T01:09:30;3.90;;;1.70;;
57375;SDS011;44805;45.048;5.062;2023-05-07T01:11:56;2.85;;;1.30;;
57375;SDS011;44805;45.048;5.062;2023-05-07T01:14:23;3.13;;;1.30;;
57375;SDS011;44805;45.048;5.062;2023-05-07T01:16:50;3.30;;;1.40;;
57375;SDS011;44805;45.048;5.062;2023-05-07T01:19:17;2.55;;;1.45;;
57375;SDS011;44805;45.048;5.062;2023-05-07T01:21:44;3.58;;;1.40;;
57375;SDS011;44805;45.048;5.062;2023-05-07T01:24:11;2.67;;;1.30;;
57375;SDS011;44805;45.048;5.062;2023-05-07T01:26:38;2.97;;;1.40;;
57375;SDS011;44805;45.048;5.062;2023-05-07T01:29:04;2.67;;;1.33;;
57375;SDS011;44805;45.048;5.062;2023-05-07T01:31:30;2.85;;;1.42;;
57375;SDS011;44805;45.048;5.062;2023-05-07T01:33:57;3.80;;;1.50;;
57375;SDS011;44805;45.048;5.062;2023-05-07T01:36:26;4.03;;;1.58;;
57375;SDS011;44805;45.048;5.062;2023-05-07T01:38:54;3.22;;;1.40;;
57375;SDS011;44805;45.048;5.062;2023-05-07T01:41:19;3.20;;;1.48;;
57375;SDS011;44805;45.048;5.062;2023-05-07T01:43:46;3.63;;;1.50;;
57375;SDS011;44805;45.048;5.062;2023-05-07T01:46:12;3.08;;;1.45;;
57375;SDS011;44805;45.048;5.062;2023-05-07T01:48:39;2.97;;;1.50;;
57375;SDS011;44805;45.048;5.062;2023-05-07T01:51:05;3.33;;;1.70;;
57375;SDS011;44805;45.048;5.062;2023-05-07T01:53:37;4.63;;;1.40;;
57375;SDS011;44805;45.048;5.062;2023-05-07T01:56:06;3.92;;;2.10;;
57375;SDS011;44805;45.048;5.062;2023-05-07T01:58:35;2.92;;;1.60;;
57375;SDS011;44805;45.048;5.062;2023-05-07T02:01:00;2.50;;;1.38;;
57375;SDS011;44805;45.048;5.062;2023-05-07T02:03:26;4.15;;;1.50;;
57375;SDS011;44805;45.048;5.062;2023-05-07T02:05:51;3.35;;;1.58;;
57375;SDS011;44805;45.048;5.062;2023-05-07T02:08:17;4.32;;;1.42;;
57375;SDS011;44805;45.048;5.062;2023-05-07T02:10:42;3.90;;;1.48;;
57375;SDS011;44805;45.048;5.062;2023-05-07T02:13:08;5.00;;;1.80;;
57375;SDS011;44805;45.048;5.062;2023-05-07T02:15:33;4.03;;;1.85;;
57375;SDS011;44805;45.048;5.062;2023-05-07T02:18:00;2.92;;;1.52;;
57375;SDS011;44805;45.048;5.062;2023-05-07T02:20:29;3.85;;;1.77;;
57375;SDS011;44805;45.048;5.062;2023-05-07T02:22:54;5.82;;;1.60;;
57375;SDS011;44805;45.048;5.062;2023-05-07T02:25:20;3.28;;;1.63;;
57375;SDS011;44805;45.048;5.062;2023-05-07T02:27:45;3.15;;;1.50;;
57375;SDS011;44805;45.048;5.062;2023-05-07T02:30:11;3.75;;;1.80;;
57375;SDS011;44805;45.048;5.062;2023-05-07T02:32:37;2.78;;;1.40;;
57375;SDS011;44805;45.048;5.062;2023-05-07T02:35:02;3.17;;;1.50;;
57375;SDS011;44805;45.048;5.062;2023-05-07T02:37:28;4.05;;;1.70;;
57375;SDS011;44805;45.048;5.062;2023-05-07T02:39:53;3.45;;;1.30;;
57375;SDS011;44805;45.048;5.062;2023-05-07T02:42:19;4.05;;;1.80;;
57375;SDS011;44805;45.048;5.062;2023-05-07T02:44:44;3.33;;;1.50;;
57375;SDS011;44805;45.048;5.062;2023-05-07T02:47:10;3.35;;;1.50;;
57375;SDS011;44805;45.048;5.062;2023-05-07T02:49:38;4.18;;;1.63;;
57375;SDS011;44805;45.048;5.062;2023-05-07T02:52:03;4.20;;;1.50;;
57375;SDS011;44805;45.048;5.062;2023-05-07T02:54:32;4.45;;;1.92;;
57375;SDS011;44805;45.048;5.062;2023-05-07T02:56:57;3.58;;;1.60;;
57375;SDS011;44805;45.048;5.062;2023-05-07T02:59:23;3.30;;;1.52;;
57375;SDS011;44805;45.048;5.062;2023-05-07T03:01:49;3.38;;;1.63;;
57375;SDS011;44805;45.048;5.062;2023-05-07T03:04:14;2.50;;;1.58;;
57375;SDS011;44805;45.048;5.062;2023-05-07T03:06:45;3.20;;;1.67;;
57375;SDS011;44805;45.048;5.062;2023-05-07T03:09:10;4.13;;;1.65;;
57375;SDS011;44805;45.048;5.062;2023-05-07T03:11:36;3.65;;;1.60;;
57375;SDS011;44805;45.048;5.062;2023-05-07T03:14:07;4.45;;;1.42;;
57375;SDS011;44805;45.048;5.062;2023-05-07T03:16:32;3.10;;;1.60;;
57375;SDS011;44805;45.048;5.062;2023-05-07T03:18:58;2.95;;;1.52;;
57375;SDS011;44805;45.048;5.062;2023-05-07T03:21:23;3.10;;;1.40;;
57375;SDS011;44805;45.048;5.062;2023-05-07T03:23:49;4.88;;;1.60;;
57375;SDS011;44805;45.048;5.062;2023-05-07T03:26:14;4.25;;;1.63;;
57375;SDS011;44805;45.048;5.062;2023-05-07T03:28:40;2.15;;;1.20;;
57375;SDS011;44805;45.048;5.062;2023-05-07T03:31:08;3.47;;;1.70;;
57375;SDS011;44805;45.048;5.062;2023-05-07T03:33:34;4.55;;;1.48;;
57375;SDS011;44805;45.048;5.062;2023-05-07T03:36:00;3.45;;;1.40;;
57375;SDS011;44805;45.048;5.062;2023-05-07T03:38:26;4.47;;;2.15;;
57375;SDS011;44805;45.048;5.062;2023-05-07T03:40:51;4.38;;;1.90;;
57375;SDS011;44805;45.048;5.062;2023-05-07T03:43:17;4.22;;;1.80;;
57375;SDS011;44805;45.048;5.062;2023-05-07T03:45:45;4.93;;;1.80;;
57375;SDS011;44805;45.048;5.062;2023-05-07T03:48:11;4.97;;;1.88;;
57375;SDS011;44805;45.048;5.062;2023-05-07T03:50:37;4.50;;;1.90;;
57375;SDS011;44805;45.048;5.062;2023-05-07T03:53:05;4.40;;;2.03;;
57375;SDS011;44805;45.048;5.062;2023-05-07T03:55:30;4.93;;;1.67;;
57375;SDS011;44805;45.048;5.062;2023-05-07T03:57:56;5.80;;;1.90;;
57375;SDS011;44805;45.048;5.062;2023-05-07T04:00:21;3.20;;;1.40;;
57375;SDS011;44805;45.048;5.062;2023-05-07T04:02:47;4.60;;;1.70;;
57375;SDS011;44805;45.048;5.062;2023-05-07T04:05:12;3.08;;;1.55;;
57375;SDS011;44805;45.048;5.062;2023-05-07T04:07:39;3.67;;;1.70;;
57375;SDS011;44805;45.048;5.062;2023-05-07T04:10:05;4.85;;;1.83;;
57375;SDS011;44805;45.048;5.062;2023-05-07T04:12:30;2.50;;;1.30;;
57375;SDS011;44805;45.048;5.062;2023-05-07T04:14:56;3.65;;;1.75;;
57375;SDS011;44805;45.048;5.062;2023-05-07T04:17:21;5.18;;;1.63;;
57375;SDS011;44805;45.048;5.062;2023-05-07T04:19:47;3.42;;;1.70;;
57375;SDS011;44805;45.048;5.062;2023-05-07T04:22:12;4.10;;;1.73;;
57375;SDS011;44805;45.048;5.062;2023-05-07T04:24:38;3.67;;;2.25;;
57375;SDS011;44805;45.048;5.062;2023-05-07T04:27:03;4.95;;;1.95;;
57375;SDS011;44805;45.048;5.062;2023-05-07T04:29:29;4.65;;;1.70;;
57375;SDS011;44805;45.048;5.062;2023-05-07T04:31:54;4.32;;;1.67;;
57375;SDS011;44805;45.048;5.062;2023-05-07T04:34:24;4.80;;;2.00;;
57375;SDS011;44805;45.048;5.062;2023-05-07T04:36:49;3.25;;;1.65;;
57375;SDS011;44805;45.048;5.062;2023-05-07T04:39:15;4.03;;;1.77;;
57375;SDS011;44805;45.048;5.062;2023-05-07T04:41:41;4.28;;;1.80;;
57375;SDS011;44805;45.048;5.062;2023-05-07T04:44:06;4.38;;;2.00;;
57375;SDS011;44805;45.048;5.062;2023-05-07T04:46:32;3.42;;;1.80;;
57375;SDS011;44805;45.048;5.062;2023-05-07T04:48:57;3.00;;;1.60;;
57375;SDS011;44805;45.048;5.062;2023-05-07T04:51:22;4.20;;;2.00;;
57375;SDS011;44805;45.048;5.062;2023-05-07T04:53:48;4.35;;;2.00;;
57375;SDS011;44805;45.048;5.062;2023-05-07T04:56:14;4.05;;;1.73;;
57375;SDS011;44805;45.048;5.062;2023-05-07T04:58:39;3.50;;;1.83;;
57375;SDS011;44805;45.048;5.062;2023-05-07T05:01:05;4.63;;;2.35;;
57375;SDS011;44805;45.048;5.062;2023-05-07T05:03:31;4.85;;;1.90;;
57375;SDS011;44805;45.048;5.062;2023-05-07T05:05:56;3.63;;;2.00;;
57375;SDS011;44805;45.048;5.062;2023-05-07T05:08:24;5.35;;;2.20;;
57375;SDS011;44805;45.048;5.062;2023-05-07T05:10:49;5.07;;;1.90;;
57375;SDS011;44805;45.048;5.062;2023-05-07T05:13:15;4.85;;;2.17;;
57375;SDS011;44805;45.048;5.062;2023-05-07T05:15:43;4.22;;;1.90;;
57375;SDS011;44805;45.048;5.062;2023-05-07T05:18:09;5.38;;;2.30;;
57375;SDS011;44805;45.048;5.062;2023-05-07T05:20:34;7.75;;;2.25;;
57375;SDS011;44805;45.048;5.062;2023-05-07T05:23:00;4.70;;;2.03;;
57375;SDS011;44805;45.048;5.062;2023-05-07T05:25:25;4.15;;;2.03;;
57375;SDS011;44805;45.048;5.062;2023-05-07T05:27:51;3.97;;;1.88;;
57375;SDS011;44805;45.048;5.062;2023-05-07T05:30:16;5.05;;;2.13;;
57375;SDS011;44805;45.048;5.062;2023-05-07T05:32:42;4.28;;;1.85;;
57375;SDS011;44805;45.048;5.062;2023-05-07T05:35:07;4.00;;;1.98;;
57375;SDS011;44805;45.048;5.062;2023-05-07T05:37:36;4.13;;;2.10;;
57375;SDS011;44805;45.048;5.062;2023-05-07T05:40:17;4.65;;;2.05;;
57375;SDS011;44805;45.048;5.062;2023-05-07T05:42:42;4.20;;;1.80;;
57375;SDS011;44805;45.048;5.062;2023-05-07T05:45:08;4.38;;;1.80;;
57375;SDS011;44805;45.048;5.062;2023-05-07T05:47:34;3.45;;;1.80;;
57375;SDS011;44805;45.048;5.062;2023-05-07T05:49:59;5.32;;;1.98;;
57375;SDS011;44805;45.048;5.062;2023-05-07T05:52:24;4.45;;;1.88;;
57375;SDS011;44805;45.048;5.062;2023-05-07T05:54:50;3.38;;;1.63;;
57375;SDS011;44805;45.048;5.062;2023-05-07T05:57:15;3.33;;;1.65;;
57375;SDS011;44805;45.048;5.062;2023-05-07T05:59:41;4.05;;;1.88;;
57375;SDS011;44805;45.048;5.062;2023-05-07T06:02:06;6.25;;;2.00;;
57375;SDS011;44805;45.048;5.062;2023-05-07T06:04:32;4.13;;;1.63;;
57375;SDS011;44805;45.048;5.062;2023-05-07T06:06:57;2.97;;;1.70;;
57375;SDS011;44805;45.048;5.062;2023-05-07T06:09:23;3.45;;;1.90;;
57375;SDS011;44805;45.048;5.062;2023-05-07T06:11:51;5.05;;;1.50;;
57375;SDS011;44805;45.048;5.062;2023-05-07T06:14:17;5.73;;;2.00;;
57375;SDS011;44805;45.048;5.062;2023-05-07T06:16:43;6.70;;;1.95;;
57375;SDS011;44805;45.048;5.062;2023-05-07T06:19:09;3.35;;;1.60;;
57375;SDS011;44805;45.048;5.062;2023-05-07T06:21:34;3.38;;;1.55;;
57375;SDS011;44805;45.048;5.062;2023-05-07T06:24:00;3.67;;;1.70;;
57375;SDS011;44805;45.048;5.062;2023-05-07T06:26:25;4.45;;;1.38;;
57375;SDS011;44805;45.048;5.062;2023-05-07T06:28:51;3.95;;;1.77;;
57375;SDS011;44805;45.048;5.062;2023-05-07T06:31:17;4.28;;;1.60;;
57375;SDS011;44805;45.048;5.062;2023-05-07T06:33:47;4.03;;;1.92;;
57375;SDS011;44805;45.048;5.062;2023-05-07T06:36:16;4.38;;;1.70;;
57375;SDS011;44805;45.048;5.062;2023-05-07T06:38:42;4.05;;;1.73;;
57375;SDS011;44805;45.048;5.062;2023-05-07T06:41:10;4.35;;;1.83;;
57375;SDS011;44805;45.048;5.062;2023-05-07T06:43:35;3.90;;;1.67;;
57375;SDS011;44805;45.048;5.062;2023-05-07T06:46:00;3.30;;;1.65;;
57375;SDS011;44805;45.048;5.062;2023-05-07T06:48:26;4.15;;;2.00;;
57375;SDS011;44805;45.048;5.062;2023-05-07T06:50:51;5.15;;;2.00;;
57375;SDS011;44805;45.048;5.062;2023-05-07T06:53:18;3.80;;;1.80;;
57375;SDS011;44805;45.048;5.062;2023-05-07T06:55:43;3.80;;;1.77;;
57375;SDS011;44805;45.048;5.062;2023-05-07T06:58:08;3.22;;;1.83;;
57375;SDS011;44805;45.048;5.062;2023-05-07T07:00:34;3.13;;;1.60;;
57375;SDS011;44805;45.048;5.062;2023-05-07T07:03:00;6.72;;;1.73;;
57375;SDS011;44805;45.048;5.062;2023-05-07T07:05:25;3.78;;;1.70;;
57375;SDS011;44805;45.048;5.062;2023-05-07T07:07:50;4.82;;;1.73;;
57375;SDS011;44805;45.048;5.062;2023-05-07T07:10:22;4.72;;;1.85;;
57375;SDS011;44805;45.048;5.062;2023-05-07T07:12:48;3.80;;;1.80;;
57375;SDS011;44805;45.048;5.062;2023-05-07T07:15:14;3.83;;;1.67;;
57375;SDS011;44805;45.048;5.062;2023-05-07T07:17:40;3.53;;;1.58;;
57375;SDS011;44805;45.048;5.062;2023-05-07T07:20:06;3.75;;;2.00;;
57375;SDS011;44805;45.048;5.062;2023-05-07T07:22:32;4.55;;;1.75;;
57375;SDS011;44805;45.048;5.062;2023-05-07T07:24:57;5.28;;;1.90;;
57375;SDS011;44805;45.048;5.062;2023-05-07T07:27:23;2.95;;;1.58;;
57375;SDS011;44805;45.048;5.062;2023-05-07T07:29:49;4.32;;;2.08;;
57375;SDS011;44805;45.048;5.062;2023-05-07T07:32:14;3.33;;;1.58;;
57375;SDS011;44805;45.048;5.062;2023-05-07T07:34:40;4.43;;;1.88;;
57375;SDS011;44805;45.048;5.062;2023-05-07T07:37:05;4.55;;;1.80;;
57375;SDS011;44805;45.048;5.062;2023-05-07T07:39:34;4.22;;;1.73;;
57375;SDS011;44805;45.048;5.062;2023-05-07T07:42:00;5.05;;;2.28;;
57375;SDS011;44805;45.048;5.062;2023-05-07T07:44:25;5.22;;;2.08;;
57375;SDS011;44805;45.048;5.062;2023-05-07T07:46:52;6.22;;;2.38;;
57375;SDS011;44805;45.048;5.062;2023-05-07T07:49:17;4.75;;;2.13;;
57375;SDS011;44805;45.048;5.062;2023-05-07T07:51:43;5.35;;;2.13;;
57375;SDS011;44805;45.048;5.062;2023-05-07T07:54:08;5.22;;;2.30;;
57375;SDS011;44805;45.048;5.062;2023-05-07T07:56:33;5.65;;;2.33;;
57375;SDS011;44805;45.048;5.062;2023-05-07T07:58:59;5.88;;;2.90;;
57375;SDS011;44805;45.048;5.062;2023-05-07T08:01:25;5.35;;;2.33;;
57375;SDS011;44805;45.048;5.062;2023-05-07T08:03:51;5.35;;;2.80;;
57375;SDS011;44805;45.048;5.062;2023-05-07T08:06:17;5.38;;;2.38;;
57375;SDS011;44805;45.048;5.062;2023-05-07T08:08:42;4.82;;;2.60;;
57375;SDS011;44805;45.048;5.062;2023-05-07T08:11:08;4.95;;;2.50;;
57375;SDS011;44805;45.048;5.062;2023-05-07T08:13:34;4.82;;;2.67;;
57375;SDS011;44805;45.048;5.062;2023-05-07T08:15:59;6.00;;;2.50;;
57375;SDS011;44805;45.048;5.062;2023-05-07T08:18:25;4.93;;;2.67;;
57375;SDS011;44805;45.048;5.062;2023-05-07T08:20:51;4.93;;;2.30;;
57375;SDS011;44805;45.048;5.062;2023-05-07T08:23:16;5.03;;;2.45;;
57375;SDS011;44805;45.048;5.062;2023-05-07T08:25:41;3.85;;;2.33;;
57375;SDS011;44805;45.048;5.062;2023-05-07T08:28:07;5.40;;;2.60;;
57375;SDS011;44805;45.048;5.062;2023-05-07T08:30:33;5.63;;;2.85;;
57375;SDS011;44805;45.048;5.062;2023-05-07T08:32:59;5.32;;;2.78;;
57375;SDS011;44805;45.048;5.062;2023-05-07T08:35:25;4.95;;;2.70;;
57375;SDS011;44805;45.048;5.062;2023-05-07T08:37:51;5.65;;;2.70;;
57375;SDS011;44805;45.048;5.062;2023-05-07T08:40:17;7.75;;;2.83;;
57375;SDS011;44805;45.048;5.062;2023-05-07T08:42:43;4.70;;;2.58;;
57375;SDS011;44805;45.048;5.062;2023-05-07T08:45:09;4.72;;;2.55;;
57375;SDS011;44805;45.048;5.062;2023-05-07T08:47:42;6.53;;;2.70;;
57375;SDS011;44805;45.048;5.062;2023-05-07T08:50:12;6.18;;;2.92;;
57375;SDS011;44805;45.048;5.062;2023-05-07T08:52:37;5.78;;;2.70;;
57375;SDS011;44805;45.048;5.062;2023-05-07T08:55:07;5.20;;;2.70;;
57375;SDS011;44805;45.048;5.062;2023-05-07T08:57:33;6.57;;;3.00;;
57375;SDS011;44805;45.048;5.062;2023-05-07T08:59:58;5.80;;;2.83;;
57375;SDS011;44805;45.048;5.062;2023-05-07T09:02:24;5.35;;;2.50;;
57375;SDS011;44805;45.048;5.062;2023-05-07T09:04:49;5.65;;;2.72;;
57375;SDS011;44805;45.048;5.062;2023-05-07T09:07:16;5.93;;;2.85;;
57375;SDS011;44805;45.048;5.062;2023-05-07T09:09:41;6.57;;;2.90;;
57375;SDS011;44805;45.048;5.062;2023-05-07T09:12:09;6.60;;;2.92;;
57375;SDS011;44805;45.048;5.062;2023-05-07T09:14:35;4.50;;;2.33;;
57375;SDS011;44805;45.048;5.062;2023-05-07T09:17:03;5.28;;;2.60;;
57375;SDS011;44805;45.048;5.062;2023-05-07T09:19:28;5.72;;;2.95;;
57375;SDS011;44805;45.048;5.062;2023-05-07T09:22:00;4.75;;;2.78;;
57375;SDS011;44805;45.048;5.062;2023-05-07T09:24:27;5.28;;;3.13;;
57375;SDS011;44805;45.048;5.062;2023-05-07T09:26:57;6.57;;;2.95;;
57375;SDS011;44805;45.048;5.062;2023-05-07T09:29:23;6.88;;;2.90;;
57375;SDS011;44805;45.048;5.062;2023-05-07T09:31:48;5.97;;;2.90;;
57375;SDS011;44805;45.048;5.062;2023-05-07T09:34:14;6.18;;;2.55;;
57375;SDS011;44805;45.048;5.062;2023-05-07T09:36:39;6.13;;;2.97;;
57375;SDS011;44805;45.048;5.062;2023-05-07T09:39:05;6.18;;;2.92;;
57375;SDS011;44805;45.048;5.062;2023-05-07T09:41:30;4.82;;;2.65;;
57375;SDS011;44805;45.048;5.062;2023-05-07T09:43:58;5.70;;;3.00;;
57375;SDS011;44805;45.048;5.062;2023-05-07T09:46:27;5.60;;;2.75;;
57375;SDS011;44805;45.048;5.062;2023-05-07T09:48:56;5.53;;;2.60;;
57375;SDS011;44805;45.048;5.062;2023-05-07T09:51:29;8.32;;;3.95;;
57375;SDS011;44805;45.048;5.062;2023-05-07T09:54:08;6.28;;;3.20;;
57375;SDS011;44805;45.048;5.062;2023-05-07T09:56:35;5.40;;;3.00;;
57375;SDS011;44805;45.048;5.062;2023-05-07T09:59:02;6.72;;;2.97;;
57375;SDS011;44805;45.048;5.062;2023-05-07T10:01:29;4.70;;;2.60;;
57375;SDS011;44805;45.048;5.062;2023-05-07T10:03:56;5.32;;;2.90;;
57375;SDS011;44805;45.048;5.062;2023-05-07T10:06:24;4.50;;;2.45;;
57375;SDS011;44805;45.048;5.062;2023-05-07T10:08:50;6.35;;;3.00;;
57375;SDS011;44805;45.048;5.062;2023-05-07T10:11:18;6.65;;;2.90;;
57375;SDS011;44805;45.048;5.062;2023-05-07T10:13:43;4.10;;;2.33;;
57375;SDS011;44805;45.048;5.062;2023-05-07T10:16:09;4.90;;;2.50;;
57375;SDS011;44805;45.048;5.062;2023-05-07T10:18:35;5.35;;;2.60;;
57375;SDS011;44805;45.048;5.062;2023-05-07T10:21:07;5.40;;;2.65;;
57375;SDS011;44805;45.048;5.062;2023-05-07T10:23:36;4.93;;;2.70;;
57375;SDS011;44805;45.048;5.062;2023-05-07T10:26:04;5.90;;;2.70;;
57375;SDS011;44805;45.048;5.062;2023-05-07T10:28:33;6.28;;;2.67;;
57375;SDS011;44805;45.048;5.062;2023-05-07T10:33:29;5.90;;;2.60;;
57375;SDS011;44805;45.048;5.062;2023-05-07T10:35:59;5.72;;;2.78;;
57375;SDS011;44805;45.048;5.062;2023-05-07T10:38:27;7.10;;;3.00;;
57375;SDS011;44805;45.048;5.062;2023-05-07T10:40:53;7.65;;;3.22;;
57375;SDS011;44805;45.048;5.062;2023-05-07T10:43:19;6.10;;;3.55;;
57375;SDS011;44805;45.048;5.062;2023-05-07T10:46:09;6.53;;;3.53;;
57375;SDS011;44805;45.048;5.062;2023-05-07T10:51:37;5.30;;;2.90;;
57375;SDS011;44805;45.048;5.062;2023-05-07T10:56:38;8.10;;;4.15;;
57375;SDS011;44805;45.048;5.062;2023-05-07T11:01:54;5.80;;;3.10;;
57375;SDS011;44805;45.048;5.062;2023-05-07T11:04:22;5.43;;;3.13;;
57375;SDS011;44805;45.048;5.062;2023-05-07T11:13:03;4.90;;;2.58;;
57375;SDS011;44805;45.048;5.062;2023-05-07T11:17:29;6.22;;;2.78;;
57375;SDS011;44805;45.048;5.062;2023-05-07T11:19:57;5.30;;;2.92;;
57375;SDS011;44805;45.048;5.062;2023-05-07T11:25:04;4.50;;;2.42;;
57375;SDS011;44805;45.048;5.062;2023-05-07T11:27:31;5.72;;;2.70;;
57375;SDS011;44805;45.048;5.062;2023-05-07T11:29:57;6.45;;;2.83;;
57375;SDS011;44805;45.048;5.062;2023-05-07T11:32:23;5.63;;;2.97;;
57375;SDS011;44805;45.048;5.062;2023-05-07T11:34:52;7.07;;;3.33;;
57375;SDS011;44805;45.048;5.062;2023-05-07T11:37:19;5.25;;;2.30;;
57375;SDS011;44805;45.048;5.062;2023-05-07T11:39:45;5.43;;;2.20;;
57375;SDS011;44805;45.048;5.062;2023-05-07T11:42:30;6.95;;;2.22;;
57375;SDS011;44805;45.048;5.062;2023-05-07T11:44:58;4.32;;;2.17;;
57375;SDS011;44805;45.048;5.062;2023-05-07T11:47:23;5.07;;;2.45;;
57375;SDS011;44805;45.048;5.062;2023-05-07T11:49:53;4.28;;;2.33;;
57375;SDS011;44805;45.048;5.062;2023-05-07T11:52:20;4.63;;;2.50;;
57375;SDS011;44805;45.048;5.062;2023-05-07T11:54:54;4.80;;;2.42;;
57375;SDS011;44805;45.048;5.062;2023-05-07T11:57:21;4.60;;;2.25;;
57375;SDS011;44805;45.048;5.062;2023-05-07T11:59:47;5.93;;;2.40;;
57375;SDS011;44805;45.048;5.062;2023-05-07T12:02:16;5.40;;;2.55;;
57375;SDS011;44805;45.048;5.062;2023-05-07T12:04:42;4.65;;;2.20;;
57375;SDS011;44805;45.048;5.062;2023-05-07T12:07:14;4.88;;;2.20;;
57375;SDS011;44805;45.048;5.062;2023-05-07T12:09:40;6.35;;;2.30;;
57375;SDS011;44805;45.048;5.062;2023-05-07T12:12:07;3.90;;;2.03;;
57375;SDS011;44805;45.048;5.062;2023-05-07T12:14:32;4.30;;;2.17;;
57375;SDS011;44805;45.048;5.062;2023-05-07T12:17:05;4.63;;;2.30;;
57375;SDS011;44805;45.048;5.062;2023-05-07T12:19:31;4.72;;;2.30;;
57375;SDS011;44805;45.048;5.062;2023-05-07T12:21:59;3.90;;;2.20;;
57375;SDS011;44805;45.048;5.062;2023-05-07T12:24:24;4.47;;;2.20;;
57375;SDS011;44805;45.048;5.062;2023-05-07T12:26:50;4.35;;;2.20;;
57375;SDS011;44805;45.048;5.062;2023-05-07T12:29:18;2.78;;;1.60;;
57375;SDS011;44805;45.048;5.062;2023-05-07T12:31:46;4.07;;;1.70;;
57375;SDS011;44805;45.048;5.062;2023-05-07T12:34:12;2.65;;;1.60;;
57375;SDS011;44805;45.048;5.062;2023-05-07T12:36:38;3.88;;;1.60;;
57375;SDS011;44805;45.048;5.062;2023-05-07T12:39:05;3.10;;;1.45;;
57375;SDS011;44805;45.048;5.062;2023-05-07T12:41:55;3.80;;;1.98;;
57375;SDS011;44805;45.048;5.062;2023-05-07T12:44:22;5.13;;;1.73;;
57375;SDS011;44805;45.048;5.062;2023-05-07T12:46:48;3.90;;;1.60;;
57375;SDS011;44805;45.048;5.062;2023-05-07T12:49:14;4.80;;;2.00;;
57375;SDS011;44805;45.048;5.062;2023-05-07T12:51:40;4.38;;;1.50;;
57375;SDS011;44805;45.048;5.062;2023-05-07T12:54:09;4.23;;;1.50;;
57375;SDS011;44805;45.048;5.062;2023-05-07T12:56:37;2.75;;;1.23;;
57375;SDS011;44805;45.048;5.062;2023-05-07T12:59:03;2.92;;;1.50;;
57375;SDS011;44805;45.048;5.062;2023-05-07T13:01:29;2.67;;;1.38;;
57375;SDS011;44805;45.048;5.062;2023-05-07T13:04:02;3.65;;;1.60;;
57375;SDS011;44805;45.048;5.062;2023-05-07T13:06:31;3.20;;;1.45;;
57375;SDS011;44805;45.048;5.062;2023-05-07T13:08:56;2.97;;;1.70;;
57375;SDS011;44805;45.048;5.062;2023-05-07T13:11:22;3.08;;;1.75;;
57375;SDS011;44805;45.048;5.062;2023-05-07T13:13:47;3.40;;;1.48;;
57375;SDS011;44805;45.048;5.062;2023-05-07T13:16:13;3.00;;;1.60;;
57375;SDS011;44805;45.048;5.062;2023-05-07T13:18:39;2.72;;;1.60;;
57375;SDS011;44805;45.048;5.062;2023-05-07T13:21:06;3.15;;;1.52;;
57375;SDS011;44805;45.048;5.062;2023-05-07T13:23:31;3.17;;;1.30;;
57375;SDS011;44805;45.048;5.062;2023-05-07T13:25:57;3.22;;;1.42;;
57375;SDS011;44805;45.048;5.062;2023-05-07T13:28:25;2.20;;;1.27;;
57375;SDS011;44805;45.048;5.062;2023-05-07T13:30:51;2.30;;;1.10;;
57375;SDS011;44805;45.048;5.062;2023-05-07T13:33:18;2.50;;;1.30;;
57375;SDS011;44805;45.048;5.062;2023-05-07T13:35:44;1.60;;;1.08;;
57375;SDS011;44805;45.048;5.062;2023-05-07T13:38:09;3.28;;;1.40;;
57375;SDS011;44805;45.048;5.062;2023-05-07T13:40:35;3.60;;;1.15;;
57375;SDS011;44805;45.048;5.062;2023-05-07T13:43:00;2.30;;;1.20;;
57375;SDS011;44805;45.048;5.062;2023-05-07T13:47:56;2.38;;;1.20;;
57375;SDS011;44805;45.048;5.062;2023-05-07T13:50:22;2.35;;;1.10;;
57375;SDS011;44805;45.048;5.062;2023-05-07T13:52:48;2.33;;;1.23;;
57375;SDS011;44805;45.048;5.062;2023-05-07T13:55:19;2.38;;;1.20;;
57375;SDS011;44805;45.048;5.062;2023-05-07T13:57:45;2.47;;;1.13;;
57375;SDS011;44805;45.048;5.062;2023-05-07T14:00:12;2.47;;;1.05;;
57375;SDS011;44805;45.048;5.062;2023-05-07T14:02:39;2.47;;;1.13;;
57375;SDS011;44805;45.048;5.062;2023-05-07T14:05:05;2.38;;;1.30;;
57375;SDS011;44805;45.048;5.062;2023-05-07T14:07:31;2.50;;;1.15;;
57375;SDS011;44805;45.048;5.062;2023-05-07T14:09:56;2.45;;;1.33;;
57375;SDS011;44805;45.048;5.062;2023-05-07T14:12:22;1.98;;;1.17;;
57375;SDS011;44805;45.048;5.062;2023-05-07T14:14:48;2.75;;;1.23;;
57375;SDS011;44805;45.048;5.062;2023-05-07T14:17:15;3.08;;;1.30;;
57375;SDS011;44805;45.048;5.062;2023-05-07T14:19:43;2.78;;;1.30;;
57375;SDS011;44805;45.048;5.062;2023-05-07T14:22:09;3.33;;;1.52;;
57375;SDS011;44805;45.048;5.062;2023-05-07T14:24:34;2.03;;;1.20;;
57375;SDS011;44805;45.048;5.062;2023-05-07T14:27:00;2.17;;;1.20;;
57375;SDS011;44805;45.048;5.062;2023-05-07T14:29:25;2.00;;;1.25;;
57375;SDS011;44805;45.048;5.062;2023-05-07T14:31:51;2.58;;;1.30;;
57375;SDS011;44805;45.048;5.062;2023-05-07T14:34:16;2.88;;;1.23;;
57375;SDS011;44805;45.048;5.062;2023-05-07T14:36:44;2.47;;;1.27;;
57375;SDS011;44805;45.048;5.062;2023-05-07T14:39:09;2.70;;;1.35;;
57375;SDS011;44805;45.048;5.062;2023-05-07T14:41:35;3.35;;;1.60;;
57375;SDS011;44805;45.048;5.062;2023-05-07T14:44:00;2.85;;;1.23;;
57375;SDS011;44805;45.048;5.062;2023-05-07T14:46:28;2.42;;;1.30;;
57375;SDS011;44805;45.048;5.062;2023-05-07T14:48:54;2.33;;;1.30;;
57375;SDS011;44805;45.048;5.062;2023-05-07T14:51:22;2.65;;;1.52;;
57375;SDS011;44805;45.048;5.062;2023-05-07T14:53:49;2.78;;;1.30;;
57375;SDS011;44805;45.048;5.062;2023-05-07T14:56:15;2.22;;;1.38;;
57375;SDS011;44805;45.048;5.062;2023-05-07T14:58:43;2.67;;;1.40;;
57375;SDS011;44805;45.048;5.062;2023-05-07T15:01:09;3.13;;;1.35;;
57375;SDS011;44805;45.048;5.062;2023-05-07T15:03:34;2.42;;;1.30;;
57375;SDS011;44805;45.048;5.062;2023-05-07T15:06:00;3.15;;;1.45;;
57375;SDS011;44805;45.048;5.062;2023-05-07T15:08:26;2.50;;;1.10;;
57375;SDS011;44805;45.048;5.062;2023-05-07T15:10:51;3.08;;;1.48;;